Grantsburg, Wisconsin
Current Conditions -  °F | °C
As of 4:14 PM on Sunday 23 Nov 2014 (Local Time) from KROS Reporting Station
Overcast Overcast  
Wind Chill: 38°   Ceiling: 4600
Heat Index: 38°   Visibility: 10mi
Dew Point: 36°   Wind: 0mph
Humidity: 94%   Direction: NA
Pressure: 29.39"   Gusts: NA
Location:  45.78°N, 92.68°W
Report Text: KROS 232214Z AUTO 00000KT 10SM SCT039 OVC046 03/02 A2939 RMK AO2 T00320023
Loading
Personal Weather Stations






























Interactive Weather Map New forecast layout! Learn more

10-Day Weather Forecast

Advertisements
Track Severe Weather on mobile